sensor_id;sensor_type;location;lat;lon;timestamp;temperature;humidity
9083;DHT22;4577;48.704;9.000;2022-11-20T00:01:15;6.40;87.40
9083;DHT22;4577;48.704;9.000;2022-11-20T00:03:41;6.40;88.30
9083;DHT22;4577;48.704;9.000;2022-11-20T00:06:10;6.60;89.00
9083;DHT22;4577;48.704;9.000;2022-11-20T00:11:06;6.50;88.50
9083;DHT22;4577;48.704;9.000;2022-11-20T00:13:33;6.30;88.10
9083;DHT22;4577;48.704;9.000;2022-11-20T00:15:59;6.50;88.40
9083;DHT22;4577;48.704;9.000;2022-11-20T00:18:26;6.40;88.20
9083;DHT22;4577;48.704;9.000;2022-11-20T00:23:18;6.20;88.00
9083;DHT22;4577;48.704;9.000;2022-11-20T00:25:43;6.20;88.00
9083;DHT22;4577;48.704;9.000;2022-11-20T00:33:01;6.40;88.70
9083;DHT22;4577;48.704;9.000;2022-11-20T00:35:27;6.30;88.70
9083;DHT22;4577;48.704;9.000;2022-11-20T00:37:52;6.30;88.80
9083;DHT22;4577;48.704;9.000;2022-11-20T00:47:36;6.20;89.40
9083;DHT22;4577;48.704;9.000;2022-11-20T00:50:02;6.30;88.90
9083;DHT22;4577;48.704;9.000;2022-11-20T00:57:20;6.30;88.30
9083;DHT22;4577;48.704;9.000;2022-11-20T00:59:45;6.30;87.80
9083;DHT22;4577;48.704;9.000;2022-11-20T01:02:11;6.30;88.00
9083;DHT22;4577;48.704;9.000;2022-11-20T01:07:03;6.20;87.80
9083;DHT22;4577;48.704;9.000;2022-11-20T01:09:29;5.80;87.50
9083;DHT22;4577;48.704;9.000;2022-11-20T01:11:54;5.90;88.30
9083;DHT22;4577;48.704;9.000;2022-11-20T01:14:21;5.90;88.30
9083;DHT22;4577;48.704;9.000;2022-11-20T01:16:49;5.90;89.10
9083;DHT22;4577;48.704;9.000;2022-11-20T01:19:20;5.80;89.00
9083;DHT22;4577;48.704;9.000;2022-11-20T01:21:49;6.00;88.90
9083;DHT22;4577;48.704;9.000;2022-11-20T01:24:17;5.90;89.20
9083;DHT22;4577;48.704;9.000;2022-11-20T01:26:44;5.90;88.40
9083;DHT22;4577;48.704;9.000;2022-11-20T01:29:17;5.90;87.90
9083;DHT22;4577;48.704;9.000;2022-11-20T01:31:43;5.90;87.80
9083;DHT22;4577;48.704;9.000;2022-11-20T01:34:13;5.40;87.70
9083;DHT22;4577;48.704;9.000;2022-11-20T01:39:10;5.70;88.30
9083;DHT22;4577;48.704;9.000;2022-11-20T01:41:36;5.90;88.70
9083;DHT22;4577;48.704;9.000;2022-11-20T01:44:41;5.90;88.30
9083;DHT22;4577;48.704;9.000;2022-11-20T01:47:09;5.80;88.00
9083;DHT22;4577;48.704;9.000;2022-11-20T01:49:47;5.80;87.80
9083;DHT22;4577;48.704;9.000;2022-11-20T01:52:27;5.60;87.70
9083;DHT22;4577;48.704;9.000;2022-11-20T01:55:04;6.00;87.70
9083;DHT22;4577;48.704;9.000;2022-11-20T01:57:32;5.90;87.50
9083;DHT22;4577;48.704;9.000;2022-11-20T02:00:06;5.60;86.80
9083;DHT22;4577;48.704;9.000;2022-11-20T02:02:33;5.90;87.60
9083;DHT22;4577;48.704;9.000;2022-11-20T02:05:05;5.70;86.90
9083;DHT22;4577;48.704;9.000;2022-11-20T02:07:34;6.30;87.50
9083;DHT22;4577;48.704;9.000;2022-11-20T02:10:00;5.60;86.60
9083;DHT22;4577;48.704;9.000;2022-11-20T02:12:26;5.40;87.30
9083;DHT22;4577;48.704;9.000;2022-11-20T02:15:10;5.70;86.80
9083;DHT22;4577;48.704;9.000;2022-11-20T02:17:36;5.60;87.20
9083;DHT22;4577;48.704;9.000;2022-11-20T02:20:02;5.80;87.60
9083;DHT22;4577;48.704;9.000;2022-11-20T02:22:37;5.60;87.10
9083;DHT22;4577;48.704;9.000;2022-11-20T02:25:05;5.80;88.00
9083;DHT22;4577;48.704;9.000;2022-11-20T02:27:32;5.80;87.40
9083;DHT22;4577;48.704;9.000;2022-11-20T02:30:03;5.60;87.70
9083;DHT22;4577;48.704;9.000;2022-11-20T02:32:32;5.70;87.60
9083;DHT22;4577;48.704;9.000;2022-11-20T02:34:58;5.90;87.90
9083;DHT22;4577;48.704;9.000;2022-11-20T02:37:35;5.90;87.80
9083;DHT22;4577;48.704;9.000;2022-11-20T02:44:53;5.60;87.60
9083;DHT22;4577;48.704;9.000;2022-11-20T02:47:19;5.90;88.00
9083;DHT22;4577;48.704;9.000;2022-11-20T02:49:45;5.90;88.10
9083;DHT22;4577;48.704;9.000;2022-11-20T02:52:11;5.90;88.40
9083;DHT22;4577;48.704;9.000;2022-11-20T02:59:29;6.00;89.10
9083;DHT22;4577;48.704;9.000;2022-11-20T03:01:54;5.90;88.80
9083;DHT22;4577;48.704;9.000;2022-11-20T03:04:20;5.90;88.90
9083;DHT22;4577;48.704;9.000;2022-11-20T03:09:12;5.60;88.70
9083;DHT22;4577;48.704;9.000;2022-11-20T03:14:05;5.70;89.00
9083;DHT22;4577;48.704;9.000;2022-11-20T03:16:40;5.70;89.10
9083;DHT22;4577;48.704;9.000;2022-11-20T03:21:35;5.70;89.70
9083;DHT22;4577;48.704;9.000;2022-11-20T03:24:02;5.70;90.00
9083;DHT22;4577;48.704;9.000;2022-11-20T03:26:28;5.60;90.00
9083;DHT22;4577;48.704;9.000;2022-11-20T03:29:00;5.60;90.00
9083;DHT22;4577;48.704;9.000;2022-11-20T03:31:28;5.60;90.20
9083;DHT22;4577;48.704;9.000;2022-11-20T03:33:57;5.60;90.10
9083;DHT22;4577;48.704;9.000;2022-11-20T03:36:23;6.00;90.10
9083;DHT22;4577;48.704;9.000;2022-11-20T03:38:49;5.40;90.10
9083;DHT22;4577;48.704;9.000;2022-11-20T03:41:18;5.50;90.10
9083;DHT22;4577;48.704;9.000;2022-11-20T03:43:51;5.40;90.00
9083;DHT22;4577;48.704;9.000;2022-11-20T03:46:17;5.40;90.00
9083;DHT22;4577;48.704;9.000;2022-11-20T03:51:18;5.30;90.10
9083;DHT22;4577;48.704;9.000;2022-11-20T03:53:45;5.40;89.80
9083;DHT22;4577;48.704;9.000;2022-11-20T03:56:12;5.40;89.70
9083;DHT22;4577;48.704;9.000;2022-11-20T03:58:40;5.10;89.70
9083;DHT22;4577;48.704;9.000;2022-11-20T04:01:07;5.60;90.10
9083;DHT22;4577;48.704;9.000;2022-11-20T04:03:34;5.50;89.60
9083;DHT22;4577;48.704;9.000;2022-11-20T04:06:09;5.50;90.00
9083;DHT22;4577;48.704;9.000;2022-11-20T04:08:36;5.40;90.10
9083;DHT22;4577;48.704;9.000;2022-11-20T04:11:29;5.50;89.80
9083;DHT22;4577;48.704;9.000;2022-11-20T04:13:57;5.50;89.50
9083;DHT22;4577;48.704;9.000;2022-11-20T04:16:24;5.50;89.20
9083;DHT22;4577;48.704;9.000;2022-11-20T04:18:54;5.60;89.20
9083;DHT22;4577;48.704;9.000;2022-11-20T04:21:21;5.50;88.80
9083;DHT22;4577;48.704;9.000;2022-11-20T04:23:48;5.40;89.60
9083;DHT22;4577;48.704;9.000;2022-11-20T04:26:14;5.50;89.50
9083;DHT22;4577;48.704;9.000;2022-11-20T04:28:40;5.50;89.40
9083;DHT22;4577;48.704;9.000;2022-11-20T04:31:16;5.40;89.20
9083;DHT22;4577;48.704;9.000;2022-11-20T04:33:43;5.40;89.50
9083;DHT22;4577;48.704;9.000;2022-11-20T04:36:22;5.50;89.60
9083;DHT22;4577;48.704;9.000;2022-11-20T04:38:53;5.30;89.70
9083;DHT22;4577;48.704;9.000;2022-11-20T04:41:21;5.50;89.80
9083;DHT22;4577;48.704;9.000;2022-11-20T04:43:51;5.70;89.60
9083;DHT22;4577;48.704;9.000;2022-11-20T04:46:18;5.50;89.10
9083;DHT22;4577;48.704;9.000;2022-11-20T04:48:44;5.60;89.40
9083;DHT22;4577;48.704;9.000;2022-11-20T04:51:10;5.50;89.30
9083;DHT22;4577;48.704;9.000;2022-11-20T04:56:04;5.70;89.30
9083;DHT22;4577;48.704;9.000;2022-11-20T05:01:04;5.70;89.60
9083;DHT22;4577;48.704;9.000;2022-11-20T05:03:31;5.80;90.00
9083;DHT22;4577;48.704;9.000;2022-11-20T05:08:22;6.00;89.20
9083;DHT22;4577;48.704;9.000;2022-11-20T05:10:48;5.90;89.00
9083;DHT22;4577;48.704;9.000;2022-11-20T05:15:40;5.60;88.80
9083;DHT22;4577;48.704;9.000;2022-11-20T05:20:32;5.90;89.10
9083;DHT22;4577;48.704;9.000;2022-11-20T05:22:58;5.80;88.90
9083;DHT22;4577;48.704;9.000;2022-11-20T05:25:24;6.00;89.10
9083;DHT22;4577;48.704;9.000;2022-11-20T05:27:50;5.70;88.90
9083;DHT22;4577;48.704;9.000;2022-11-20T05:35:08;5.90;88.30
9083;DHT22;4577;48.704;9.000;2022-11-20T05:37:34;6.10;88.90
9083;DHT22;4577;48.704;9.000;2022-11-20T05:39:59;6.10;89.10
9083;DHT22;4577;48.704;9.000;2022-11-20T05:42:25;5.90;88.50
9083;DHT22;4577;48.704;9.000;2022-11-20T05:45:03;6.10;89.20
9083;DHT22;4577;48.704;9.000;2022-11-20T05:47:32;5.90;88.70
9083;DHT22;4577;48.704;9.000;2022-11-20T05:49:58;5.80;89.10
9083;DHT22;4577;48.704;9.000;2022-11-20T05:52:24;5.90;88.70
9083;DHT22;4577;48.704;9.000;2022-11-20T05:54:53;5.80;89.20
9083;DHT22;4577;48.704;9.000;2022-11-20T05:57:18;5.80;89.10
9083;DHT22;4577;48.704;9.000;2022-11-20T06:04:36;6.00;89.30
9083;DHT22;4577;48.704;9.000;2022-11-20T06:07:02;5.70;88.90
9083;DHT22;4577;48.704;9.000;2022-11-20T06:09:27;6.00;89.20
9083;DHT22;4577;48.704;9.000;2022-11-20T06:14:19;6.00;89.40
9083;DHT22;4577;48.704;9.000;2022-11-20T06:19:12;5.80;89.00
9083;DHT22;4577;48.704;9.000;2022-11-20T06:21:38;5.70;89.00
9083;DHT22;4577;48.704;9.000;2022-11-20T06:24:03;6.10;89.30
9083;DHT22;4577;48.704;9.000;2022-11-20T06:26:30;6.00;89.30
9083;DHT22;4577;48.704;9.000;2022-11-20T06:28:56;6.00;89.10
9083;DHT22;4577;48.704;9.000;2022-11-20T06:31:23;5.90;88.90
9083;DHT22;4577;48.704;9.000;2022-11-20T06:33:50;6.00;88.70
9083;DHT22;4577;48.704;9.000;2022-11-20T06:36:18;5.70;88.90
9083;DHT22;4577;48.704;9.000;2022-11-20T06:38:44;6.00;88.70
9083;DHT22;4577;48.704;9.000;2022-11-20T06:41:18;5.90;88.70
9083;DHT22;4577;48.704;9.000;2022-11-20T06:46:11;5.80;88.60
9083;DHT22;4577;48.704;9.000;2022-11-20T06:51:05;5.80;88.80
9083;DHT22;4577;48.704;9.000;2022-11-20T06:58:26;5.70;89.10
9083;DHT22;4577;48.704;9.000;2022-11-20T07:03:18;5.80;89.30
9083;DHT22;4577;48.704;9.000;2022-11-20T07:08:11;6.00;88.80
9083;DHT22;4577;48.704;9.000;2022-11-20T07:10:37;6.10;89.00
9083;DHT22;4577;48.704;9.000;2022-11-20T07:15:29;6.00;89.50
9083;DHT22;4577;48.704;9.000;2022-11-20T07:17:58;5.90;89.20
9083;DHT22;4577;48.704;9.000;2022-11-20T07:22:55;5.90;89.60
9083;DHT22;4577;48.704;9.000;2022-11-20T07:25:21;6.00;89.50
9083;DHT22;4577;48.704;9.000;2022-11-20T07:27:47;6.00;89.70
9083;DHT22;4577;48.704;9.000;2022-11-20T07:30:14;6.00;89.10
9083;DHT22;4577;48.704;9.000;2022-11-20T07:32:40;6.00;89.50
9083;DHT22;4577;48.704;9.000;2022-11-20T07:35:06;5.80;89.50
9083;DHT22;4577;48.704;9.000;2022-11-20T07:37:34;5.90;89.70
9083;DHT22;4577;48.704;9.000;2022-11-20T07:49:44;6.00;89.60
9083;DHT22;4577;48.704;9.000;2022-11-20T07:59:27;6.30;89.30
9083;DHT22;4577;48.704;9.000;2022-11-20T08:06:45;6.30;89.50
9083;DHT22;4577;48.704;9.000;2022-11-20T08:09:11;6.10;89.60
9083;DHT22;4577;48.704;9.000;2022-11-20T08:11:36;6.50;89.70
9083;DHT22;4577;48.704;9.000;2022-11-20T08:14:20;6.30;89.50
9083;DHT22;4577;48.704;9.000;2022-11-20T08:16:48;6.50;90.00
9083;DHT22;4577;48.704;9.000;2022-11-20T08:19:15;6.30;90.10
9083;DHT22;4577;48.704;9.000;2022-11-20T08:21:41;6.40;90.20
9083;DHT22;4577;48.704;9.000;2022-11-20T08:24:08;6.60;90.30
9083;DHT22;4577;48.704;9.000;2022-11-20T08:26:35;7.10;90.70
9083;DHT22;4577;48.704;9.000;2022-11-20T08:29:01;6.60;90.50
9083;DHT22;4577;48.704;9.000;2022-11-20T08:31:27;6.70;90.40
9083;DHT22;4577;48.704;9.000;2022-11-20T08:33:53;7.20;90.70
9083;DHT22;4577;48.704;9.000;2022-11-20T08:36:20;6.60;90.30
9083;DHT22;4577;48.704;9.000;2022-11-20T08:38:50;6.80;90.50
9083;DHT22;4577;48.704;9.000;2022-11-20T08:41:17;6.80;90.30
9083;DHT22;4577;48.704;9.000;2022-11-20T08:43:52;6.70;90.30
9083;DHT22;4577;48.704;9.000;2022-11-20T08:48:44;6.90;90.20
9083;DHT22;4577;48.704;9.000;2022-11-20T08:51:11;7.00;90.30
9083;DHT22;4577;48.704;9.000;2022-11-20T08:53:38;6.90;90.20
9083;DHT22;4577;48.704;9.000;2022-11-20T08:56:04;6.90;90.20
9083;DHT22;4577;48.704;9.000;2022-11-20T08:58:30;6.90;90.40
9083;DHT22;4577;48.704;9.000;2022-11-20T09:00:55;6.80;90.00
9083;DHT22;4577;48.704;9.000;2022-11-20T09:03:21;6.80;90.30
9083;DHT22;4577;48.704;9.000;2022-11-20T09:05:47;6.70;90.30
9083;DHT22;4577;48.704;9.000;2022-11-20T09:08:13;6.60;89.90
9083;DHT22;4577;48.704;9.000;2022-11-20T09:10:38;7.00;90.00
9083;DHT22;4577;48.704;9.000;2022-11-20T09:15:31;7.10;88.70
9083;DHT22;4577;48.704;9.000;2022-11-20T09:18:01;7.00;88.90
9083;DHT22;4577;48.704;9.000;2022-11-20T09:20:29;7.00;88.90
9083;DHT22;4577;48.704;9.000;2022-11-20T09:22:56;7.00;88.70
9083;DHT22;4577;48.704;9.000;2022-11-20T09:27:57;7.00;89.60
9083;DHT22;4577;48.704;9.000;2022-11-20T09:32:49;6.90;89.10
9083;DHT22;4577;48.704;9.000;2022-11-20T09:35:15;7.00;89.20
9083;DHT22;4577;48.704;9.000;2022-11-20T09:37:40;6.80;88.80
9083;DHT22;4577;48.704;9.000;2022-11-20T09:40:10;7.00;89.50
9083;DHT22;4577;48.704;9.000;2022-11-20T09:55:46;7.00;88.80
9083;DHT22;4577;48.704;9.000;2022-11-20T09:58:47;7.00;88.80
9083;DHT22;4577;48.704;9.000;2022-11-20T10:01:19;7.00;89.20
9083;DHT22;4577;48.704;9.000;2022-11-20T10:06:15;7.50;90.20
9083;DHT22;4577;48.704;9.000;2022-11-20T10:09:14;7.00;90.00
9083;DHT22;4577;48.704;9.000;2022-11-20T10:25:39;7.10;91.20
9083;DHT22;4577;48.704;9.000;2022-11-20T10:28:17;7.00;90.90
9083;DHT22;4577;48.704;9.000;2022-11-20T10:30:46;6.80;91.20
9083;DHT22;4577;48.704;9.000;2022-11-20T10:33:24;6.80;91.90
9083;DHT22;4577;48.704;9.000;2022-11-20T10:38:42;6.80;91.70
9083;DHT22;4577;48.704;9.000;2022-11-20T10:41:17;6.70;91.90
9083;DHT22;4577;48.704;9.000;2022-11-20T10:44:03;6.60;91.90
9083;DHT22;4577;48.704;9.000;2022-11-20T10:46:39;6.50;91.80
9083;DHT22;4577;48.704;9.000;2022-11-20T10:49:13;6.50;91.80
9083;DHT22;4577;48.704;9.000;2022-11-20T10:54:47;3.60;90.50
9083;DHT22;4577;48.704;9.000;2022-11-20T11:02:43;7.00;91.60
9083;DHT22;4577;48.704;9.000;2022-11-20T11:07:56;7.00;91.70
9083;DHT22;4577;48.704;9.000;2022-11-20T11:10:32;7.10;92.00
9083;DHT22;4577;48.704;9.000;2022-11-20T11:15:38;6.90;91.60
9083;DHT22;4577;48.704;9.000;2022-11-20T11:22:58;7.00;90.00
9083;DHT22;4577;48.704;9.000;2022-11-20T11:25:34;7.00;89.90
9083;DHT22;4577;48.704;9.000;2022-11-20T11:30:44;7.10;89.60
9083;DHT22;4577;48.704;9.000;2022-11-20T11:33:18;7.10;89.80
9083;DHT22;4577;48.704;9.000;2022-11-20T11:36:05;7.30;89.20
9083;DHT22;4577;48.704;9.000;2022-11-20T11:41:03;7.50;89.20
9083;DHT22;4577;48.704;9.000;2022-11-20T11:43:33;7.50;88.20
9083;DHT22;4577;48.704;9.000;2022-11-20T11:49:13;7.60;87.00
9083;DHT22;4577;48.704;9.000;2022-11-20T11:57:09;7.90;87.30
9083;DHT22;4577;48.704;9.000;2022-11-20T12:00:04;8.00;83.00
9083;DHT22;4577;48.704;9.000;2022-11-20T12:02:42;7.90;83.40
9083;DHT22;4577;48.704;9.000;2022-11-20T12:05:27;8.00;82.90
9083;DHT22;4577;48.704;9.000;2022-11-20T12:07:59;8.00;81.60
9083;DHT22;4577;48.704;9.000;2022-11-20T12:13:55;7.80;77.40
9083;DHT22;4577;48.704;9.000;2022-11-20T12:18:51;7.80;76.40
9083;DHT22;4577;48.704;9.000;2022-11-20T12:23:56;7.80;76.30
9083;DHT22;4577;48.704;9.000;2022-11-20T12:29:46;7.80;76.40
9083;DHT22;4577;48.704;9.000;2022-11-20T12:36:06;7.70;75.80
9083;DHT22;4577;48.704;9.000;2022-11-20T12:47:22;12.20;77.80
9083;DHT22;4577;48.704;9.000;2022-11-20T12:50:14;7.90;74.10
9083;DHT22;4577;48.704;9.000;2022-11-20T12:53:02;8.00;75.20
9083;DHT22;4577;48.704;9.000;2022-11-20T12:59:38;8.30;76.60
9083;DHT22;4577;48.704;9.000;2022-11-20T13:04:37;8.50;72.90
9083;DHT22;4577;48.704;9.000;2022-11-20T13:07:08;7.90;73.30
9083;DHT22;4577;48.704;9.000;2022-11-20T13:09:42;8.10;74.30
9083;DHT22;4577;48.704;9.000;2022-11-20T13:12:31;7.80;74.30
9083;DHT22;4577;48.704;9.000;2022-11-20T13:18:04;7.80;71.90
9083;DHT22;4577;48.704;9.000;2022-11-20T13:20:32;8.00;73.00
9083;DHT22;4577;48.704;9.000;2022-11-20T13:22:58;8.00;72.90
9083;DHT22;4577;48.704;9.000;2022-11-20T13:25:26;7.90;73.10
9083;DHT22;4577;48.704;9.000;2022-11-20T13:27:53;8.00;73.10
9083;DHT22;4577;48.704;9.000;2022-11-20T13:30:21;8.00;72.00
9083;DHT22;4577;48.704;9.000;2022-11-20T13:33:37;7.90;71.10
9083;DHT22;4577;48.704;9.000;2022-11-20T13:35:55;7.70;71.40
9083;DHT22;4577;48.704;9.000;2022-11-20T13:38:21;7.80;72.10
9083;DHT22;4577;48.704;9.000;2022-11-20T13:41:01;7.70;73.20
9083;DHT22;4577;48.704;9.000;2022-11-20T13:43:49;7.90;73.40
9083;DHT22;4577;48.704;9.000;2022-11-20T13:46:15;7.70;73.40
9083;DHT22;4577;48.704;9.000;2022-11-20T13:48:43;7.70;73.90
9083;DHT22;4577;48.704;9.000;2022-11-20T13:51:22;7.80;74.10
9083;DHT22;4577;48.704;9.000;2022-11-20T13:59:57;7.80;75.00
9083;DHT22;4577;48.704;9.000;2022-11-20T14:02:26;7.80;74.60
9083;DHT22;4577;48.704;9.000;2022-11-20T14:04:54;7.80;74.60
9083;DHT22;4577;48.704;9.000;2022-11-20T14:07:31;7.70;74.20
9083;DHT22;4577;48.704;9.000;2022-11-20T14:09:57;8.10;78.60
9083;DHT22;4577;48.704;9.000;2022-11-20T14:12:29;8.10;73.50
9083;DHT22;4577;48.704;9.000;2022-11-20T14:14:55;8.00;73.70
9083;DHT22;4577;48.704;9.000;2022-11-20T14:17:23;7.90;73.80
9083;DHT22;4577;48.704;9.000;2022-11-20T14:19:51;7.80;74.60
9083;DHT22;4577;48.704;9.000;2022-11-20T14:22:23;7.80;75.20
9083;DHT22;4577;48.704;9.000;2022-11-20T14:25:06;7.90;75.40
9083;DHT22;4577;48.704;9.000;2022-11-20T14:27:40;8.00;75.40
9083;DHT22;4577;48.704;9.000;2022-11-20T14:30:20;8.00;75.30
9083;DHT22;4577;48.704;9.000;2022-11-20T14:32:47;8.00;75.70
9083;DHT22;4577;48.704;9.000;2022-11-20T14:35:37;7.80;76.30
9083;DHT22;4577;48.704;9.000;2022-11-20T14:38:10;7.80;76.30
9083;DHT22;4577;48.704;9.000;2022-11-20T14:43:24;7.90;77.20
9083;DHT22;4577;48.704;9.000;2022-11-20T14:46:05;7.70;77.40
9083;DHT22;4577;48.704;9.000;2022-11-20T14:51:23;7.80;77.50
9083;DHT22;4577;48.704;9.000;2022-11-20T14:56:22;7.70;77.70
9083;DHT22;4577;48.704;9.000;2022-11-20T14:58:56;7.80;77.40
9083;DHT22;4577;48.704;9.000;2022-11-20T15:01:29;7.80;77.50
9083;DHT22;4577;48.704;9.000;2022-11-20T15:04:11;7.70;77.30
9083;DHT22;4577;48.704;9.000;2022-11-20T15:06:37;7.50;77.40
9083;DHT22;4577;48.704;9.000;2022-11-20T15:09:04;7.70;77.80
9083;DHT22;4577;48.704;9.000;2022-11-20T15:11:35;7.60;77.70
9083;DHT22;4577;48.704;9.000;2022-11-20T15:14:03;7.50;78.00
9083;DHT22;4577;48.704;9.000;2022-11-20T15:21:22;7.50;78.70
9083;DHT22;4577;48.704;9.000;2022-11-20T15:26:22;7.90;79.40
9083;DHT22;4577;48.704;9.000;2022-11-20T15:28:49;8.10;79.60
9083;DHT22;4577;48.704;9.000;2022-11-20T15:31:20;7.30;79.30
9083;DHT22;4577;48.704;9.000;2022-11-20T15:36:12;7.40;80.10
9083;DHT22;4577;48.704;9.000;2022-11-20T15:41:05;7.30;80.30
9083;DHT22;4577;48.704;9.000;2022-11-20T15:46:00;7.30;80.70
9083;DHT22;4577;48.704;9.000;2022-11-20T15:48:30;7.30;81.00
9083;DHT22;4577;48.704;9.000;2022-11-20T15:51:18;7.30;81.20
9083;DHT22;4577;48.704;9.000;2022-11-20T15:53:45;7.20;81.20
9083;DHT22;4577;48.704;9.000;2022-11-20T15:56:12;7.20;81.60
9083;DHT22;4577;48.704;9.000;2022-11-20T15:58:39;7.00;81.70
9083;DHT22;4577;48.704;9.000;2022-11-20T16:03:30;7.30;82.20
9083;DHT22;4577;48.704;9.000;2022-11-20T16:08:22;7.10;82.30
9083;DHT22;4577;48.704;9.000;2022-11-20T16:13:16;7.40;82.30
9083;DHT22;4577;48.704;9.000;2022-11-20T16:16:06;7.40;82.30
9083;DHT22;4577;48.704;9.000;2022-11-20T16:23:26;7.20;82.50
9083;DHT22;4577;48.704;9.000;2022-11-20T16:30:45;7.90;83.40
9083;DHT22;4577;48.704;9.000;2022-11-20T16:33:12;7.30;82.90
9083;DHT22;4577;48.704;9.000;2022-11-20T16:38:04;7.40;83.00
9083;DHT22;4577;48.704;9.000;2022-11-20T16:40:30;7.00;82.80
9083;DHT22;4577;48.704;9.000;2022-11-20T16:45:22;7.30;83.00
9083;DHT22;4577;48.704;9.000;2022-11-20T16:50:14;7.10;83.10
9083;DHT22;4577;48.704;9.000;2022-11-20T16:55:06;7.20;83.70
9083;DHT22;4577;48.704;9.000;2022-11-20T16:57:32;7.30;83.80
9083;DHT22;4577;48.704;9.000;2022-11-20T16:59:59;7.20;83.80
9083;DHT22;4577;48.704;9.000;2022-11-20T17:02:25;7.30;83.40
9083;DHT22;4577;48.704;9.000;2022-11-20T17:04:51;7.20;83.40
9083;DHT22;4577;48.704;9.000;2022-11-20T17:07:17;7.30;83.70
9083;DHT22;4577;48.704;9.000;2022-11-20T17:17:01;7.30;82.60
9083;DHT22;4577;48.704;9.000;2022-11-20T17:29:13;7.20;81.70
9083;DHT22;4577;48.704;9.000;2022-11-20T17:31:39;7.30;81.50
9083;DHT22;4577;48.704;9.000;2022-11-20T17:34:07;7.20;81.30
9083;DHT22;4577;48.704;9.000;2022-11-20T17:38:59;7.20;80.70
9083;DHT22;4577;48.704;9.000;2022-11-20T17:41:26;7.20;80.10
9083;DHT22;4577;48.704;9.000;2022-11-20T17:43:54;7.20;79.20
9083;DHT22;4577;48.704;9.000;2022-11-20T17:46:22;7.30;79.40
9083;DHT22;4577;48.704;9.000;2022-11-20T17:48:49;7.10;78.90
9083;DHT22;4577;48.704;9.000;2022-11-20T17:51:21;7.20;78.70
9083;DHT22;4577;48.704;9.000;2022-11-20T17:53:53;7.20;78.60
9083;DHT22;4577;48.704;9.000;2022-11-20T17:56:19;7.50;78.40
9083;DHT22;4577;48.704;9.000;2022-11-20T17:59:10;7.20;78.00
9083;DHT22;4577;48.704;9.000;2022-11-20T18:01:36;7.20;77.60
9083;DHT22;4577;48.704;9.000;2022-11-20T18:04:02;7.00;77.70
9083;DHT22;4577;48.704;9.000;2022-11-20T18:06:29;7.30;77.70
9083;DHT22;4577;48.704;9.000;2022-11-20T18:08:57;7.30;77.70
9083;DHT22;4577;48.704;9.000;2022-11-20T18:11:26;7.20;77.40
9083;DHT22;4577;48.704;9.000;2022-11-20T18:13:54;7.20;77.50
9083;DHT22;4577;48.704;9.000;2022-11-20T18:16:47;7.20;77.60
9083;DHT22;4577;48.704;9.000;2022-11-20T18:19:16;7.20;77.90
9083;DHT22;4577;48.704;9.000;2022-11-20T18:21:42;7.10;77.40
9083;DHT22;4577;48.704;9.000;2022-11-20T18:24:08;7.30;77.50
9083;DHT22;4577;48.704;9.000;2022-11-20T18:26:34;7.20;77.70
9083;DHT22;4577;48.704;9.000;2022-11-20T18:36:22;7.00;77.40
9083;DHT22;4577;48.704;9.000;2022-11-20T18:38:49;7.10;77.40
9083;DHT22;4577;48.704;9.000;2022-11-20T18:41:21;7.20;77.60
9083;DHT22;4577;48.704;9.000;2022-11-20T18:44:10;7.20;78.20
9083;DHT22;4577;48.704;9.000;2022-11-20T18:49:21;7.20;78.50
9083;DHT22;4577;48.704;9.000;2022-11-20T18:54:12;7.10;78.30
9083;DHT22;4577;48.704;9.000;2022-11-20T18:56:38;7.00;78.70
9083;DHT22;4577;48.704;9.000;2022-11-20T18:59:08;7.10;78.70
9083;DHT22;4577;48.704;9.000;2022-11-20T19:01:34;7.00;78.70
9083;DHT22;4577;48.704;9.000;2022-11-20T19:04:05;7.10;79.10
9083;DHT22;4577;48.704;9.000;2022-11-20T19:06:31;6.90;77.30
9083;DHT22;4577;48.704;9.000;2022-11-20T19:08:57;6.90;77.60
9083;DHT22;4577;48.704;9.000;2022-11-20T19:13:48;6.70;77.30
9083;DHT22;4577;48.704;9.000;2022-11-20T19:16:19;6.50;77.70
9083;DHT22;4577;48.704;9.000;2022-11-20T19:18:46;6.60;77.50
9083;DHT22;4577;48.704;9.000;2022-11-20T19:21:18;6.70;78.20
9083;DHT22;4577;48.704;9.000;2022-11-20T19:23:47;6.80;78.60
9083;DHT22;4577;48.704;9.000;2022-11-20T19:26:13;6.80;76.90
9083;DHT22;4577;48.704;9.000;2022-11-20T19:31:07;6.40;78.10
9083;DHT22;4577;48.704;9.000;2022-11-20T19:36:08;6.40;77.90
9083;DHT22;4577;48.704;9.000;2022-11-20T19:38:35;6.40;77.20
9083;DHT22;4577;48.704;9.000;2022-11-20T19:48:18;6.40;77.40
9083;DHT22;4577;48.704;9.000;2022-11-20T19:50:44;6.70;78.30
9083;DHT22;4577;48.704;9.000;2022-11-20T19:53:10;6.20;78.10
9083;DHT22;4577;48.704;9.000;2022-11-20T19:55:36;6.20;78.10
9083;DHT22;4577;48.704;9.000;2022-11-20T19:58:02;6.10;78.90
9083;DHT22;4577;48.704;9.000;2022-11-20T20:00:28;6.20;78.60
9083;DHT22;4577;48.704;9.000;2022-11-20T20:05:23;6.30;78.50
9083;DHT22;4577;48.704;9.000;2022-11-20T20:07:49;6.30;78.10
9083;DHT22;4577;48.704;9.000;2022-11-20T20:12:42;6.00;78.20
9083;DHT22;4577;48.704;9.000;2022-11-20T20:24:52;5.70;79.10
9083;DHT22;4577;48.704;9.000;2022-11-20T20:29:44;6.10;78.60
9083;DHT22;4577;48.704;9.000;2022-11-20T20:32:10;6.10;79.10
9083;DHT22;4577;48.704;9.000;2022-11-20T20:39:29;6.20;79.20
9083;DHT22;4577;48.704;9.000;2022-11-20T20:41:55;5.80;78.30
9083;DHT22;4577;48.704;9.000;2022-11-20T20:44:20;6.00;79.70
9083;DHT22;4577;48.704;9.000;2022-11-20T20:47:04;6.10;80.50
9083;DHT22;4577;48.704;9.000;2022-11-20T20:49:32;6.00;79.90
9083;DHT22;4577;48.704;9.000;2022-11-20T20:56:50;6.00;80.10
9083;DHT22;4577;48.704;9.000;2022-11-20T21:04:08;5.90;80.90
9083;DHT22;4577;48.704;9.000;2022-11-20T21:06:33;6.00;81.30
9083;DHT22;4577;48.704;9.000;2022-11-20T21:08:59;6.30;81.90
9083;DHT22;4577;48.704;9.000;2022-11-20T21:16:18;5.70;82.10
9083;DHT22;4577;48.704;9.000;2022-11-20T21:21:13;5.70;83.40
9083;DHT22;4577;48.704;9.000;2022-11-20T21:23:57;5.80;83.30
9083;DHT22;4577;48.704;9.000;2022-11-20T21:26:23;5.90;83.20
9083;DHT22;4577;48.704;9.000;2022-11-20T21:28:48;5.80;83.40
9083;DHT22;4577;48.704;9.000;2022-11-20T21:31:24;5.90;83.70
9083;DHT22;4577;48.704;9.000;2022-11-20T21:33:52;5.90;83.90
9083;DHT22;4577;48.704;9.000;2022-11-20T21:36:24;6.00;83.60
9083;DHT22;4577;48.704;9.000;2022-11-20T21:38:51;5.90;83.80
9083;DHT22;4577;48.704;9.000;2022-11-20T21:41:18;5.90;84.30
9083;DHT22;4577;48.704;9.000;2022-11-20T21:46:12;5.60;84.30
9083;DHT22;4577;48.704;9.000;2022-11-20T21:48:39;5.70;85.50
9083;DHT22;4577;48.704;9.000;2022-11-20T21:51:20;5.70;84.60
9083;DHT22;4577;48.704;9.000;2022-11-20T21:53:47;5.70;85.30
9083;DHT22;4577;48.704;9.000;2022-11-20T21:56:17;5.70;84.90
9083;DHT22;4577;48.704;9.000;2022-11-20T21:58:43;5.70;85.30
9083;DHT22;4577;48.704;9.000;2022-11-20T22:01:12;5.80;85.90
9083;DHT22;4577;48.704;9.000;2022-11-20T22:03:38;5.80;86.00
9083;DHT22;4577;48.704;9.000;2022-11-20T22:06:05;5.90;86.30
9083;DHT22;4577;48.704;9.000;2022-11-20T22:08:33;5.80;86.60
9083;DHT22;4577;48.704;9.000;2022-11-20T22:11:01;5.80;86.70
9083;DHT22;4577;48.704;9.000;2022-11-20T22:13:28;5.90;86.70
9083;DHT22;4577;48.704;9.000;2022-11-20T22:16:13;5.90;87.00
9083;DHT22;4577;48.704;9.000;2022-11-20T22:18:47;6.00;86.70
9083;DHT22;4577;48.704;9.000;2022-11-20T22:21:14;6.00;87.10
9083;DHT22;4577;48.704;9.000;2022-11-20T22:26:11;5.90;88.40
9083;DHT22;4577;48.704;9.000;2022-11-20T22:28:37;6.00;88.40
9083;DHT22;4577;48.704;9.000;2022-11-20T22:31:05;5.70;88.50
9083;DHT22;4577;48.704;9.000;2022-11-20T22:33:32;5.90;89.00
9083;DHT22;4577;48.704;9.000;2022-11-20T22:36:07;5.90;89.20
9083;DHT22;4577;48.704;9.000;2022-11-20T22:38:35;6.00;89.90
9083;DHT22;4577;48.704;9.000;2022-11-20T22:41:06;5.90;89.90